createdAt,value
2022-12-31T06:28:17.788Z,6.20
2022-12-31T06:30:25.179Z,6.10
2022-12-31T06:32:29.187Z,6.20
2022-12-31T06:34:33.435Z,6.30
2022-12-31T06:36:37.100Z,6.40
2022-12-31T06:38:42.618Z,6.50
2022-12-31T06:40:46.409Z,6.50
2022-12-31T06:42:54.622Z,6.50
2022-12-31T06:45:02.401Z,6.50
2022-12-31T06:47:06.175Z,6.60
2022-12-31T06:49:10.488Z,6.70
2022-12-31T06:51:19.470Z,6.70
2022-12-31T06:53:23.446Z,6.80
2022-12-31T06:55:27.499Z,6.80
2022-12-31T06:57:31.708Z,6.80
2022-12-31T06:59:35.778Z,6.80
2022-12-31T07:01:58.819Z,6.80
2022-12-31T07:04:11.887Z,6.90
2022-12-31T07:06:33.416Z,6.90
2022-12-31T07:09:18.127Z,6.90
2022-12-31T07:11:30.098Z,6.90
2022-12-31T07:13:49.386Z,6.90
2022-12-31T07:16:20.439Z,6.80
2022-12-31T07:18:40.624Z,6.80
2022-12-31T07:20:45.488Z,6.80
2022-12-31T07:22:50.986Z,6.80
2022-12-31T07:24:56.239Z,6.70
2022-12-31T07:27:42.876Z,6.70
2022-12-31T07:30:19.575Z,6.70
2022-12-31T07:33:02.260Z,6.70
2022-12-31T07:35:21.610Z,6.80
2022-12-31T07:37:54.096Z,6.90
2022-12-31T07:40:16.885Z,6.90
2022-12-31T07:42:21.879Z,7.00
2022-12-31T07:44:43.486Z,7.10
2022-12-31T07:46:58.365Z,7.20
2022-12-31T07:49:02.513Z,7.30
2022-12-31T07:51:07.286Z,7.30
2022-12-31T07:53:12.248Z,7.40
2022-12-31T07:55:16.967Z,7.40
2022-12-31T07:57:27.496Z,7.50
2022-12-31T07:59:47.345Z,7.70
2022-12-31T08:01:54.757Z,7.80
2022-12-31T08:04:20.165Z,7.90
2022-12-31T08:06:58.647Z,7.90
2022-12-31T08:09:10.863Z,8.00
2022-12-31T08:11:43.404Z,8.10
2022-12-31T08:13:48.800Z,8.20
2022-12-31T08:15:54.065Z,8.20
2022-12-31T08:18:00.007Z,8.30
2022-12-31T08:20:12.997Z,8.30
2022-12-31T08:22:40.855Z,8.30
2022-12-31T08:25:04.645Z,8.40
2022-12-31T08:27:24.129Z,8.40
2022-12-31T08:29:42.116Z,8.40
2022-12-31T08:32:10.624Z,8.40
2022-12-31T08:34:46.824Z,8.40
2022-12-31T08:37:18.962Z,8.40
2022-12-31T09:44:43.257Z,7.90
2022-12-31T09:47:25.769Z,7.80
2022-12-31T09:49:50.197Z,7.90
2022-12-31T09:52:15.320Z,7.90
2022-12-31T09:54:56.937Z,8.00
2022-12-31T09:57:25.548Z,8.00
2022-12-31T09:59:42.128Z,8.00
2022-12-31T10:02:06.448Z,7.90
2022-12-31T10:04:45.101Z,7.90
2022-12-31T10:07:05.290Z,7.90
2022-12-31T10:09:46.722Z,8.00
2022-12-31T10:12:08.946Z,8.00
2022-12-31T10:14:41.002Z,8.10
2022-12-31T10:17:09.314Z,8.20
2022-12-31T10:22:26.308Z,8.20
2022-12-31T10:25:38.312Z,8.40
2022-12-31T10:28:01.960Z,8.40
2022-12-31T10:30:14.714Z,8.40
2022-12-31T10:32:26.294Z,8.40
2022-12-31T10:34:48.655Z,8.40
2022-12-31T10:37:06.214Z,8.50
2022-12-31T10:39:27.366Z,8.50
2022-12-31T10:41:56.258Z,8.60
2022-12-31T10:44:25.557Z,8.60
2022-12-31T10:46:44.933Z,8.60
2022-12-31T10:49:32.412Z,8.60
2022-12-31T10:52:06.852Z,8.60
2022-12-31T10:54:38.532Z,8.60
2022-12-31T10:56:52.003Z,8.60
2022-12-31T10:59:22.661Z,8.60
2022-12-31T11:02:03.694Z,8.50
2022-12-31T11:04:37.073Z,8.50
2022-12-31T11:07:30.155Z,8.60
2022-12-31T11:10:01.288Z,8.50
2022-12-31T11:12:26.409Z,8.50
2022-12-31T11:15:05.378Z,8.40
2022-12-31T11:17:32.280Z,8.40
2022-12-31T11:20:03.792Z,8.40
2022-12-31T11:22:32.318Z,8.40
2022-12-31T11:24:35.899Z,8.40
2022-12-31T12:32:35.483Z,8.80
2022-12-31T12:34:49.125Z,8.80
2022-12-31T12:36:53.142Z,8.80
2022-12-31T12:39:08.551Z,8.80
2022-12-31T12:41:20.875Z,8.90
2022-12-31T12:43:28.807Z,9.00
2022-12-31T12:45:52.204Z,9.00
2022-12-31T12:48:18.245Z,9.10
2022-12-31T12:50:25.655Z,9.10
2022-12-31T12:52:47.831Z,9.20
2022-12-31T12:55:45.333Z,9.20
2022-12-31T12:58:00.936Z,9.20
2022-12-31T13:00:24.921Z,9.20
2022-12-31T13:02:53.156Z,9.20
2022-12-31T13:05:12.961Z,9.20
2022-12-31T13:07:25.643Z,9.20
2022-12-31T13:09:50.583Z,9.20
2022-12-31T13:12:24.618Z,9.20
2022-12-31T13:14:57.188Z,9.20
2022-12-31T13:17:19.952Z,9.20
2022-12-31T13:20:03.495Z,9.20
2022-12-31T13:22:32.652Z,9.20
2022-12-31T13:25:07.412Z,9.20
2022-12-31T13:27:15.421Z,9.30
2022-12-31T13:29:26.025Z,9.30
2022-12-31T13:31:42.832Z,9.30
2022-12-31T13:33:53.393Z,9.40
2022-12-31T13:36:22.582Z,9.50
2022-12-31T13:38:31.610Z,9.50
2022-12-31T13:40:59.478Z,9.50
2022-12-31T13:43:07.960Z,9.60
2022-12-31T13:45:18.489Z,9.50
2022-12-31T13:47:31.202Z,9.60
2022-12-31T13:49:50.401Z,9.60
2022-12-31T13:52:10.628Z,9.60
2022-12-31T13:54:36.746Z,9.60
2022-12-31T13:56:43.048Z,9.50
2022-12-31T13:59:09.227Z,9.60
2022-12-31T14:01:32.108Z,9.60
2022-12-31T14:03:47.935Z,9.50
2022-12-31T14:06:07.203Z,9.50
2022-12-31T14:08:11.442Z,9.50
2022-12-31T14:10:17.163Z,9.50
2022-12-31T14:12:36.347Z,9.50
2022-12-31T14:15:22.467Z,9.40
2022-12-31T14:17:45.998Z,9.40
2022-12-31T14:20:13.831Z,9.40
2022-12-31T14:22:40.560Z,9.30
2022-12-31T14:24:57.117Z,9.20
2022-12-31T14:27:05.931Z,9.20
2022-12-31T14:29:55.248Z,9.20
2022-12-31T14:32:37.795Z,9.30
2022-12-31T14:34:53.886Z,9.30
2022-12-31T14:37:27.769Z,9.30
2022-12-31T14:40:00.873Z,9.20
2022-12-31T14:42:16.960Z,9.10
2022-12-31T14:44:27.924Z,9.00
2022-12-31T14:46:53.809Z,8.90
2022-12-31T14:49:18.746Z,8.90
2022-12-31T14:51:23.439Z,8.90
2022-12-31T14:53:29.725Z,8.90
2022-12-31T14:55:42.783Z,9.00
2022-12-31T15:00:33.772Z,9.00
2022-12-31T15:02:38.031Z,9.00
2022-12-31T15:04:47.467Z,9.00
2022-12-31T15:07:33.695Z,9.10
2022-12-31T15:09:53.909Z,9.10
2022-12-31T15:12:24.296Z,9.20
2022-12-31T15:14:40.632Z,9.20
2022-12-31T15:17:09.208Z,9.30
2022-12-31T15:19:16.336Z,9.30
2022-12-31T15:22:00.532Z,9.30
2022-12-31T15:24:14.333Z,9.30
2022-12-31T15:26:33.513Z,9.40
2022-12-31T15:28:43.199Z,9.40
2022-12-31T15:30:51.076Z,9.40
2022-12-31T15:33:00.417Z,9.40
2022-12-31T15:35:25.264Z,9.40
2022-12-31T15:37:38.178Z,9.40
2022-12-31T15:39:45.221Z,9.40
2022-12-31T15:42:36.204Z,9.40
2022-12-31T15:44:44.290Z,9.50
2022-12-31T15:47:05.024Z,9.60
2022-12-31T15:49:18.395Z,9.60
2022-12-31T15:51:32.693Z,9.80
2022-12-31T15:53:51.195Z,9.80
2022-12-31T15:55:56.725Z,9.90
2022-12-31T15:58:21.833Z,9.90
2022-12-31T16:00:27.154Z,9.90
2022-12-31T16:02:33.933Z,9.90
2022-12-31T16:04:44.785Z,9.90
2022-12-31T16:06:51.241Z,9.90
2022-12-31T16:08:57.753Z,9.90
2022-12-31T16:11:04.295Z,9.80
2022-12-31T16:13:09.373Z,9.80
2022-12-31T16:15:24.496Z,9.70
2022-12-31T16:17:38.650Z,9.70
2022-12-31T16:19:48.336Z,9.70
2022-12-31T16:21:58.124Z,9.70
2022-12-31T16:24:05.795Z,9.70
2022-12-31T16:26:12.908Z,9.70
2022-12-31T17:24:09.393Z,10.70
2022-12-31T17:26:27.290Z,10.90
2022-12-31T17:28:40.056Z,11.00
2022-12-31T17:30:45.729Z,11.10
2022-12-31T17:32:53.611Z,11.20
2022-12-31T17:34:57.913Z,11.30
2022-12-31T17:37:02.988Z,11.40
2022-12-31T17:39:19.537Z,11.40
2022-12-31T17:41:28.585Z,11.40
2022-12-31T17:43:38.579Z,11.50
2022-12-31T17:45:46.242Z,11.50
2022-12-31T17:47:54.605Z,11.50
2022-12-31T17:49:58.337Z,11.60
2022-12-31T17:52:01.965Z,11.50
2022-12-31T17:54:16.518Z,11.40
2022-12-31T17:56:22.246Z,11.30
2022-12-31T17:58:58.232Z,11.40
2022-12-31T18:01:03.253Z,11.40
2022-12-31T18:03:07.550Z,11.60
2022-12-31T18:05:24.521Z,11.80
2022-12-31T18:07:28.783Z,11.90
2022-12-31T18:09:32.978Z,11.90
2022-12-31T18:11:39.734Z,11.80
2022-12-31T18:13:44.714Z,11.80
2022-12-31T18:15:49.101Z,11.80
2022-12-31T18:21:31.412Z,11.80
2022-12-31T18:23:42.722Z,11.70
2022-12-31T18:36:40.033Z,12.00
2022-12-31T18:38:49.371Z,11.80
2022-12-31T18:41:03.811Z,11.80
2022-12-31T18:43:11.721Z,11.70
2022-12-31T18:45:22.879Z,11.70
2022-12-31T18:47:39.952Z,11.60
2022-12-31T18:49:46.903Z,11.60
2022-12-31T18:51:59.031Z,11.70
2022-12-31T18:54:05.109Z,11.70
2022-12-31T18:56:16.834Z,11.80
2022-12-31T18:58:24.176Z,11.80
2022-12-31T19:00:29.024Z,12.00
2022-12-31T19:02:33.416Z,12.10
2022-12-31T19:04:37.652Z,12.10
2022-12-31T19:06:42.923Z,12.10
2022-12-31T19:08:49.699Z,12.10
2022-12-31T19:10:56.416Z,12.10
2022-12-31T19:13:01.316Z,12.20
2022-12-31T19:15:06.014Z,12.20
2022-12-31T19:19:12.153Z,12.20
2022-12-31T19:21:24.712Z,12.30
2022-12-31T19:23:29.719Z,12.40
2022-12-31T19:25:37.075Z,12.40
2022-12-31T19:27:41.418Z,12.40
2022-12-31T19:29:46.344Z,12.40
2022-12-31T19:52:44.283Z,12.40
2022-12-31T19:54:48.251Z,12.30
2022-12-31T19:56:52.519Z,12.40
2022-12-31T19:58:56.865Z,12.40
2022-12-31T20:01:03.437Z,12.50
2022-12-31T20:03:07.286Z,12.50
2022-12-31T20:05:13.424Z,12.60
2022-12-31T20:07:20.839Z,12.60
2022-12-31T20:09:27.325Z,12.60
2022-12-31T20:11:31.112Z,12.70
2022-12-31T20:13:37.287Z,12.70
2022-12-31T20:15:41.914Z,12.70
2022-12-31T20:17:46.203Z,12.80
2022-12-31T20:19:50.641Z,12.80
2022-12-31T20:21:54.861Z,12.80
2022-12-31T20:23:58.949Z,12.80
2022-12-31T20:26:03.790Z,12.80
2022-12-31T20:28:08.931Z,12.80
2022-12-31T20:30:15.064Z,12.80
2022-12-31T20:32:18.763Z,12.80
2022-12-31T20:34:22.971Z,12.80
2022-12-31T20:36:29.091Z,12.90
2022-12-31T20:50:11.157Z,12.40
2022-12-31T20:52:16.524Z,12.20
2022-12-31T20:54:20.197Z,12.00
2022-12-31T20:56:24.928Z,12.10
2022-12-31T20:58:28.564Z,12.10
2022-12-31T21:00:32.784Z,12.20
2022-12-31T21:02:42.074Z,12.20
2022-12-31T21:04:48.992Z,12.20
2022-12-31T21:06:53.892Z,12.10
2022-12-31T21:09:00.142Z,12.10
2022-12-31T21:11:04.311Z,12.00
2022-12-31T21:13:10.496Z,11.90
2022-12-31T21:15:16.667Z,11.80
2022-12-31T21:17:20.400Z,11.80
2022-12-31T21:19:24.671Z,11.70
2022-12-31T21:21:28.410Z,11.50
2022-12-31T21:23:34.471Z,11.30
2022-12-31T21:25:38.161Z,11.10
2022-12-31T21:27:42.564Z,11.20
2022-12-31T21:30:16.987Z,11.30
2022-12-31T21:32:10.781Z,11.30
2022-12-31T21:34:15.103Z,11.20
2022-12-31T21:36:19.781Z,11.10
2022-12-31T21:54:34.814Z,11.00
2022-12-31T21:56:39.051Z,10.90
2022-12-31T21:58:45.168Z,11.00
2022-12-31T22:01:09.433Z,11.20
2022-12-31T22:03:27.817Z,11.30
2022-12-31T22:05:32.458Z,11.50
2022-12-31T22:07:36.692Z,11.80
2022-12-31T22:09:40.330Z,11.90
2022-12-31T22:11:44.070Z,12.00
2022-12-31T22:13:48.890Z,12.10
2022-12-31T22:16:03.844Z,12.10
2022-12-31T22:18:08.915Z,12.10
2022-12-31T22:20:27.066Z,12.20
2022-12-31T22:22:32.085Z,12.20
2022-12-31T22:24:36.886Z,12.20
2022-12-31T22:26:46.433Z,12.20
2022-12-31T22:28:51.098Z,12.20
2022-12-31T22:30:55.528Z,12.10
2022-12-31T22:32:59.814Z,12.10
2022-12-31T22:35:04.740Z,12.10
2022-12-31T22:37:27.471Z,12.10
2022-12-31T22:39:43.563Z,12.10
2022-12-31T22:41:48.762Z,12.20
2022-12-31T22:44:02.633Z,12.20
2022-12-31T22:46:13.741Z,12.30
2022-12-31T22:48:18.134Z,12.40
2022-12-31T22:50:22.483Z,12.40
2022-12-31T22:52:26.493Z,12.50
2022-12-31T22:54:30.753Z,12.50
2022-12-31T22:56:34.493Z,12.50
2022-12-31T22:58:39.301Z,12.50
2022-12-31T23:00:44.092Z,12.40
2022-12-31T23:05:45.071Z,12.10
2022-12-31T23:08:22.283Z,11.90
2022-12-31T23:10:53.468Z,11.90
2022-12-31T23:13:01.418Z,11.80
2022-12-31T23:15:24.514Z,11.80
2022-12-31T23:17:47.793Z,11.80
2022-12-31T23:20:11.303Z,11.80
2022-12-31T23:22:33.267Z,11.90
2022-12-31T23:24:37.019Z,12.00
2022-12-31T23:26:41.314Z,12.00
2022-12-31T23:28:46.504Z,12.10
2022-12-31T23:30:51.104Z,12.20
2022-12-31T23:32:54.832Z,12.20
2022-12-31T23:35:03.245Z,12.10
2022-12-31T23:37:09.989Z,12.00
2022-12-31T23:39:16.192Z,12.10
2022-12-31T23:41:22.903Z,12.10
2022-12-31T23:43:26.721Z,12.10
2022-12-31T23:45:33.260Z,12.00
2022-12-31T23:47:42.175Z,11.90
2022-12-31T23:49:47.116Z,11.80
2022-12-31T23:51:51.396Z,11.90
2022-12-31T23:53:55.250Z,12.00
2022-12-31T23:56:15.019Z,12.10
2022-12-31T23:58:23.307Z,12.30
